Time;durP1;ratioP1;P1;durP2;ratioP2;P2;SDS_P1;SDS_P2;PMS_P1;PMS_P2;Temp;Humidity;BMP_temperature;BMP_pressure;BME280_temperature;BME280_humidity;BME280_pressure;Samples;Min_cycle;Max_cycle;Signal;HPM_P1;HPM_P2
2023/11/13 00:02:26;;;;;;;24.17;22.38;;;;;;;;;;5137384;27;20221;-78
2023/11/13 00:04:54;;;;;;;25.55;23.25;;;;;;;;;;5135179;27;20225;-79
2023/11/13 00:07:21;;;;;;;23.70;22.08;;;;;;;;;;5131182;27;20229;-78
2023/11/13 00:09:49;;;;;;;24.60;23.05;;;;;;;;;;5115823;28;20270;-79
2023/11/13 00:12:16;;;;;;;24.00;22.30;;;;;;;;;;5115873;28;20297;-78
2023/11/13 00:14:43;;;;;;;24.00;22.58;;;;;;;;;;5115585;28;20623;-79
2023/11/13 00:17:15;;;;;;;24.20;22.55;;;;;;;;;;5115783;28;20230;-79
2023/11/13 00:19:44;;;;;;;26.13;24.00;;;;;;;;;;5115961;28;20210;-79
2023/11/13 00:22:11;;;;;;;24.52;22.95;;;;;;;;;;5115499;28;20206;-79
2023/11/13 00:24:39;;;;;;;25.20;23.63;;;;;;;;;;5118674;27;20585;-79
2023/11/13 00:27:06;;;;;;;24.85;23.15;;;;;;;;;;5136175;27;20214;-79
2023/11/13 00:29:33;;;;;;;24.73;23.17;;;;;;;;;;5135863;27;20596;-78
2023/11/13 00:32:00;;;;;;;24.88;23.15;;;;;;;;;;5135754;27;20216;-78
2023/11/13 00:34:28;;;;;;;24.27;22.70;;;;;;;;;;5135301;27;20242;-78
2023/11/13 00:36:55;;;;;;;25.80;24.00;;;;;;;;;;5135961;27;20210;-77
2023/11/13 00:39:22;;;;;;;24.58;22.98;;;;;;;;;;5136227;27;20197;-78
2023/11/13 00:41:49;;;;;;;26.08;24.27;;;;;;;;;;5135540;27;20943;-79
2023/11/13 00:44:16;;;;;;;25.20;23.52;;;;;;;;;;5134252;27;20232;-78
2023/11/13 00:46:43;;;;;;;25.02;23.33;;;;;;;;;;5135519;27;20205;-78
2023/11/13 00:49:10;;;;;;;25.08;23.30;;;;;;;;;;5135445;27;20736;-79
2023/11/13 00:51:39;;;;;;;23.63;22.23;;;;;;;;;;5135371;27;20206;-78
2023/11/13 00:54:06;;;;;;;24.95;23.15;;;;;;;;;;5134922;27;20232;-80
2023/11/13 00:56:33;;;;;;;24.17;22.58;;;;;;;;;;5135329;27;20212;-78
2023/11/13 00:59:00;;;;;;;24.60;23.10;;;;;;;;;;5134972;27;20274;-80
2023/11/13 01:01:27;;;;;;;27.20;24.73;;;;;;;;;;5134485;27;20288;-79
2023/11/13 01:03:54;;;;;;;24.85;23.23;;;;;;;;;;5134792;27;20600;-78
2023/11/13 01:06:22;;;;;;;25.88;24.05;;;;;;;;;;5135418;27;20201;-78
2023/11/13 01:08:50;;;;;;;25.13;23.52;;;;;;;;;;5134950;27;20729;-78
2023/11/13 01:11:17;;;;;;;24.73;23.02;;;;;;;;;;5134105;27;20205;-78
2023/11/13 01:13:44;;;;;;;24.48;23.08;;;;;;;;;;5134754;27;20198;-79
2023/11/13 01:16:11;;;;;;;24.67;23.13;;;;;;;;;;5114741;27;20284;-78
2023/11/13 01:18:38;;;;;;;25.48;23.58;;;;;;;;;;5114358;28;20242;-78
2023/11/13 01:21:05;;;;;;;24.77;23.27;;;;;;;;;;5114023;28;20589;-79
2023/11/13 01:23:33;;;;;;;25.58;23.58;;;;;;;;;;5113863;28;20222;-79
2023/11/13 01:26:01;;;;;;;25.13;23.42;;;;;;;;;;5113224;28;20627;-79
2023/11/13 01:28:28;;;;;;;24.67;22.98;;;;;;;;;;5113625;28;20591;-78
2023/11/13 01:30:56;;;;;;;23.70;22.20;;;;;;;;;;5113762;28;20255;-79
2023/11/13 01:33:23;;;;;;;25.15;23.45;;;;;;;;;;5114102;28;20278;-79
2023/11/13 01:35:50;;;;;;;23.20;21.80;;;;;;;;;;5112440;28;20209;-78
2023/11/13 01:38:17;;;;;;;24.80;22.90;;;;;;;;;;5124577;27;20255;-79
2023/11/13 01:40:46;;;;;;;24.52;22.55;;;;;;;;;;5133983;27;20217;-79
2023/11/13 01:43:21;;;;;;;23.75;22.35;;;;;;;;;;5133940;27;20208;-78
2023/11/13 01:45:48;;;;;;;24.45;22.95;;;;;;;;;;5133439;27;20197;-79
2023/11/13 01:48:16;;;;;;;23.65;22.10;;;;;;;;;;5133946;27;20229;-78
2023/11/13 01:50:43;;;;;;;22.70;21.38;;;;;;;;;;5133929;27;20223;-79
2023/11/13 01:53:10;;;;;;;23.80;22.40;;;;;;;;;;5133830;27;20233;-78
2023/11/13 01:55:38;;;;;;;24.02;22.15;;;;;;;;;;5133296;27;20205;-78
2023/11/13 01:58:05;;;;;;;23.50;22.00;;;;;;;;;;5127366;27;20233;-79
2023/11/13 02:00:34;;;;;;;23.80;22.30;;;;;;;;;;5113817;28;20213;-79
2023/11/13 02:03:02;;;;;;;23.70;22.38;;;;;;;;;;5113472;28;20546;-78
2023/11/13 02:05:30;;;;;;;23.23;21.73;;;;;;;;;;5112803;28;20222;-79
2023/11/13 02:07:57;;;;;;;23.25;21.85;;;;;;;;;;5113453;28;20228;-78
2023/11/13 02:10:26;;;;;;;24.77;22.98;;;;;;;;;;5113832;27;20202;-77
2023/11/13 02:12:53;;;;;;;23.15;21.75;;;;;;;;;;5113260;28;20293;-79
2023/11/13 02:15:20;;;;;;;22.42;21.13;;;;;;;;;;5123873;27;20241;-79
2023/11/13 02:18:01;;;;;;;24.02;22.42;;;;;;;;;;5133561;27;20217;-78
2023/11/13 02:20:28;;;;;;;25.17;23.30;;;;;;;;;;5133640;27;20224;-78
2023/11/13 02:22:55;;;;;;;24.75;23.05;;;;;;;;;;5133432;27;20212;-80
2023/11/13 02:25:24;;;;;;;24.33;22.70;;;;;;;;;;5132925;27;20213;-79
2023/11/13 02:27:53;;;;;;;24.67;22.88;;;;;;;;;;5133502;27;20225;-78
2023/11/13 02:30:20;;;;;;;25.63;24.02;;;;;;;;;;5134041;27;20213;-80
2023/11/13 02:32:47;;;;;;;24.95;23.00;;;;;;;;;;5133637;27;20684;-79
2023/11/13 02:35:15;;;;;;;23.63;21.92;;;;;;;;;;5132750;27;20205;-78
2023/11/13 02:37:42;;;;;;;25.33;23.13;;;;;;;;;;5132995;27;20222;-79
2023/11/13 02:40:11;;;;;;;23.90;22.30;;;;;;;;;;5133666;27;20223;-79
2023/11/13 02:42:40;;;;;;;23.98;22.40;;;;;;;;;;5133053;27;20261;-79
2023/11/13 02:45:07;;;;;;;25.70;24.10;;;;;;;;;;5133138;27;20232;-79
2023/11/13 02:47:34;;;;;;;24.75;23.25;;;;;;;;;;5132959;27;20255;-78
2023/11/13 02:50:02;;;;;;;24.17;22.30;;;;;;;;;;5133480;27;20209;-78
2023/11/13 02:52:29;;;;;;;23.80;21.73;;;;;;;;;;5133328;27;20262;-79
2023/11/13 02:54:56;;;;;;;24.25;22.60;;;;;;;;;;5132754;27;20205;-80
2023/11/13 02:57:23;;;;;;;25.80;23.58;;;;;;;;;;5133045;27;20226;-79
2023/11/13 02:59:51;;;;;;;24.20;22.70;;;;;;;;;;5133254;27;20228;-78
2023/11/13 03:02:19;;;;;;;24.55;22.60;;;;;;;;;;5133233;27;20292;-79
2023/11/13 03:04:46;;;;;;;23.80;22.10;;;;;;;;;;5132803;27;20320;-79
2023/11/13 03:07:13;;;;;;;24.88;23.15;;;;;;;;;;5132740;28;20225;-78
2023/11/13 03:09:40;;;;;;;24.52;22.83;;;;;;;;;;5133674;28;20216;-77
2023/11/13 03:12:08;;;;;;;24.90;22.65;;;;;;;;;;5132868;28;20542;-78
2023/11/13 03:14:35;;;;;;;24.20;22.48;;;;;;;;;;5132664;28;20209;-78
2023/11/13 03:17:03;;;;;;;24.58;22.88;;;;;;;;;;5132822;28;20205;-78
2023/11/13 03:19:30;;;;;;;23.50;22.00;;;;;;;;;;5132976;28;20198;-78
2023/11/13 03:21:57;;;;;;;23.00;21.60;;;;;;;;;;5133422;28;20205;-79
2023/11/13 03:24:24;;;;;;;24.17;22.60;;;;;;;;;;5132563;28;20218;-78
2023/11/13 03:26:51;;;;;;;22.77;21.38;;;;;;;;;;5133213;28;20208;-78
2023/11/13 03:29:18;;;;;;;23.20;21.70;;;;;;;;;;5132703;28;20201;-79
2023/11/13 03:31:45;;;;;;;23.23;21.58;;;;;;;;;;5132906;28;20220;-78
2023/11/13 03:34:13;;;;;;;24.40;21.77;;;;;;;;;;5132362;27;20205;-79
2023/11/13 03:36:41;;;;;;;24.52;22.40;;;;;;;;;;5136857;27;20677;-80
2023/11/13 03:39:08;;;;;;;23.50;21.95;;;;;;;;;;5137076;27;20249;-78
2023/11/13 03:41:35;;;;;;;23.33;21.77;;;;;;;;;;5137068;27;20262;-80
2023/11/13 03:44:03;;;;;;;23.58;22.08;;;;;;;;;;5136625;27;20213;-79
2023/11/13 03:46:30;;;;;;;23.52;22.00;;;;;;;;;;5137469;27;20284;-80
2023/11/13 03:48:57;;;;;;;23.20;21.67;;;;;;;;;;5136915;27;20232;-78
2023/11/13 03:51:26;;;;;;;23.73;22.17;;;;;;;;;;5137138;27;20293;-79
2023/11/13 03:53:53;;;;;;;24.00;22.45;;;;;;;;;;5136441;27;20214;-78
2023/11/13 03:56:20;;;;;;;23.42;21.83;;;;;;;;;;5136368;27;20202;-80
2023/11/13 03:58:47;;;;;;;23.25;21.70;;;;;;;;;;5136382;27;20221;-78
2023/11/13 04:01:15;;;;;;;23.55;21.95;;;;;;;;;;5136437;27;20209;-79
2023/11/13 04:03:42;;;;;;;22.90;21.30;;;;;;;;;;5136160;27;20206;-79
2023/11/13 04:06:09;;;;;;;22.48;20.98;;;;;;;;;;5136030;27;20218;-78
2023/11/13 04:08:39;;;;;;;25.15;23.33;;;;;;;;;;5136345;27;20231;-78
2023/11/13 04:11:06;;;;;;;23.05;21.55;;;;;;;;;;5132009;27;20215;-80
2023/11/13 04:13:34;;;;;;;23.60;21.80;;;;;;;;;;5116285;28;20534;-78
2023/11/13 04:16:02;;;;;;;23.00;21.38;;;;;;;;;;5114889;28;20684;-78
2023/11/13 04:18:30;;;;;;;23.10;21.60;;;;;;;;;;5115702;28;20222;-78
2023/11/13 04:20:57;;;;;;;21.83;20.52;;;;;;;;;;5115613;28;20206;-78
2023/11/13 04:23:24;;;;;;;21.95;20.50;;;;;;;;;;5115688;28;20607;-79
2023/11/13 04:25:52;;;;;;;22.42;21.08;;;;;;;;;;5114815;28;20234;-79
2023/11/13 04:28:20;;;;;;;22.55;21.08;;;;;;;;;;5115344;28;20226;-78
2023/11/13 04:30:47;;;;;;;23.27;21.58;;;;;;;;;;5115320;28;20654;-79
2023/11/13 04:33:14;;;;;;;22.60;21.00;;;;;;;;;;5115135;28;20994;-79
2023/11/13 04:35:40;;;;;;;23.05;21.48;;;;;;;;;;5114373;28;20677;-78
2023/11/13 04:38:07;;;;;;;22.90;21.45;;;;;;;;;;5115657;28;20275;-80
2023/11/13 04:40:34;;;;;;;23.40;21.88;;;;;;;;;;5115032;28;20240;-79
2023/11/13 04:43:03;;;;;;;24.10;22.20;;;;;;;;;;5114854;28;20342;-78
2023/11/13 04:45:31;;;;;;;21.88;20.42;;;;;;;;;;5114468;28;20224;-79
2023/11/13 04:47:58;;;;;;;24.20;22.30;;;;;;;;;;5113809;28;20226;-78
2023/11/13 04:50:25;;;;;;;22.52;21.02;;;;;;;;;;5114578;28;20206;-79
2023/11/13 04:52:52;;;;;;;24.40;22.70;;;;;;;;;;5114561;28;20198;-80
2023/11/13 04:55:19;;;;;;;22.70;21.30;;;;;;;;;;5114428;28;20202;-79
2023/11/13 04:57:46;;;;;;;24.10;22.38;;;;;;;;;;5114416;28;20717;-79
2023/11/13 05:00:15;;;;;;;22.50;21.05;;;;;;;;;;5114669;28;20212;-78
2023/11/13 05:02:42;;;;;;;22.80;20.88;;;;;;;;;;5114017;28;20300;-78
2023/11/13 05:05:10;;;;;;;23.30;21.55;;;;;;;;;;5114077;28;20229;-79
2023/11/13 05:07:39;;;;;;;23.95;22.38;;;;;;;;;;5115025;28;20230;-79
2023/11/13 05:10:06;;;;;;;23.77;22.15;;;;;;;;;;5114630;28;20198;-78
2023/11/13 05:12:33;;;;;;;23.20;21.67;;;;;;;;;;5114628;28;20206;-80
2023/11/13 05:15:01;;;;;;;25.63;23.85;;;;;;;;;;5113874;28;20202;-78
2023/11/13 05:17:31;;;;;;;24.05;22.13;;;;;;;;;;5114617;28;20221;-78
2023/11/13 05:19:59;;;;;;;25.27;23.38;;;;;;;;;;5114806;28;20557;-79
2023/11/13 05:22:26;;;;;;;23.75;22.00;;;;;;;;;;5114516;28;20202;-79
2023/11/13 05:24:53;;;;;;;24.15;22.40;;;;;;;;;;5114132;28;20253;-78
2023/11/13 05:27:20;;;;;;;24.65;22.95;;;;;;;;;;5114229;28;20233;-78
2023/11/13 05:29:47;;;;;;;26.90;24.80;;;;;;;;;;5113668;28;20245;-80
2023/11/13 05:32:14;;;;;;;25.70;23.90;;;;;;;;;;5114256;28;20692;-78
2023/11/13 05:34:42;;;;;;;25.52;23.63;;;;;;;;;;5113674;28;20202;-80
2023/11/13 05:37:09;;;;;;;26.70;24.67;;;;;;;;;;5114084;28;20689;-79
2023/11/13 05:39:37;;;;;;;26.77;24.77;;;;;;;;;;5113821;28;20201;-78
2023/11/13 05:42:04;;;;;;;26.75;24.65;;;;;;;;;;5113441;28;20255;-80
2023/11/13 05:44:34;;;;;;;27.02;25.13;;;;;;;;;;5113731;28;20239;-80
2023/11/13 05:47:01;;;;;;;26.95;24.63;;;;;;;;;;5113600;28;20705;-79
2023/11/13 05:49:30;;;;;;;26.10;24.13;;;;;;;;;;5113777;28;20215;-79
2023/11/13 05:51:59;;;;;;;27.10;25.17;;;;;;;;;;5113061;28;20207;-80
2023/11/13 05:54:27;;;;;;;27.45;25.20;;;;;;;;;;5113393;28;20417;-78
2023/11/13 05:56:54;;;;;;;26.98;24.90;;;;;;;;;;5125497;27;20233;-77
2023/11/13 05:59:22;;;;;;;26.55;24.50;;;;;;;;;;5134170;27;20206;-78
2023/11/13 06:01:49;;;;;;;27.55;25.25;;;;;;;;;;5133761;27;20741;-78
2023/11/13 06:07:21;;;;;;;27.85;25.75;;;;;;;;;;5131548;27;20212;-78
2023/11/13 06:12:52;;;;;;;29.60;26.92;;;;;;;;;;5132643;27;20224;-78
2023/11/13 06:15:20;;;;;;;29.45;26.98;;;;;;;;;;5135521;27;20200;-80
2023/11/13 06:17:47;;;;;;;30.33;27.58;;;;;;;;;;5136770;27;20761;-78
2023/11/13 06:20:14;;;;;;;29.27;26.83;;;;;;;;;;5134701;27;20205;-80
2023/11/13 06:22:43;;;;;;;28.88;26.33;;;;;;;;;;5120715;27;20210;-79
2023/11/13 06:25:10;;;;;;;27.85;25.55;;;;;;;;;;5123359;27;20228;-80
2023/11/13 06:27:37;;;;;;;32.20;28.80;;;;;;;;;;5137473;27;20598;-80
2023/11/13 06:30:05;;;;;;;28.77;26.27;;;;;;;;;;5137516;27;20216;-79
2023/11/13 06:32:32;;;;;;;29.27;26.73;;;;;;;;;;5138005;27;20208;-81
2023/11/13 06:34:59;;;;;;;27.48;24.88;;;;;;;;;;5137694;27;20210;-79
2023/11/13 06:37:26;;;;;;;30.17;27.52;;;;;;;;;;5138211;27;20634;-80
2023/11/13 06:39:54;;;;;;;30.25;27.30;;;;;;;;;;5137802;27;20205;-81
2023/11/13 06:42:21;;;;;;;32.25;29.30;;;;;;;;;;5137041;27;20255;-80
2023/11/13 06:44:48;;;;;;;31.10;28.35;;;;;;;;;;5136648;27;20246;-80
2023/11/13 06:47:16;;;;;;;29.13;26.55;;;;;;;;;;5137650;27;20229;-79
2023/11/13 06:49:43;;;;;;;32.38;29.05;;;;;;;;;;5136319;27;20213;-81
2023/11/13 06:52:10;;;;;;;31.15;28.08;;;;;;;;;;5123671;27;20206;-79
2023/11/13 06:54:37;;;;;;;30.90;28.08;;;;;;;;;;5136995;27;20299;-81
2023/11/13 06:57:07;;;;;;;30.20;27.30;;;;;;;;;;5137479;27;20202;-81
2023/11/13 06:59:34;;;;;;;31.23;28.17;;;;;;;;;;5137817;27;20240;-80
2023/11/13 07:02:01;;;;;;;30.40;27.52;;;;;;;;;;5134817;27;20205;-80
2023/11/13 07:04:28;;;;;;;31.85;29.00;;;;;;;;;;5136670;27;20208;-81
2023/11/13 07:06:55;;;;;;;30.77;27.98;;;;;;;;;;5137290;28;20221;-81
2023/11/13 07:09:22;;;;;;;32.20;29.10;;;;;;;;;;5137055;27;20210;-80
2023/11/13 07:11:49;;;;;;;31.67;28.90;;;;;;;;;;5137511;28;20212;-80
2023/11/13 07:14:18;;;;;;;33.17;29.98;;;;;;;;;;5136957;28;20458;-80
2023/11/13 07:16:45;;;;;;;32.53;29.52;;;;;;;;;;5137540;28;20205;-80
2023/11/13 07:19:14;;;;;;;35.17;31.52;;;;;;;;;;5138032;28;20676;-81
2023/11/13 07:21:41;;;;;;;36.05;32.53;;;;;;;;;;5136864;28;20206;-81
2023/11/13 07:24:10;;;;;;;35.50;32.30;;;;;;;;;;5136186;27;20241;-80
2023/11/13 07:26:37;;;;;;;35.05;31.75;;;;;;;;;;5137736;28;20225;-81
2023/11/13 07:29:05;;;;;;;34.40;31.15;;;;;;;;;;5137802;28;20233;-80
2023/11/13 07:31:33;;;;;;;36.20;32.83;;;;;;;;;;5137146;28;20228;-81
2023/11/13 07:34:00;;;;;;;34.45;31.15;;;;;;;;;;5137040;28;20440;-80
2023/11/13 07:36:28;;;;;;;33.75;30.75;;;;;;;;;;5136630;28;20217;-80
2023/11/13 07:38:55;;;;;;;35.10;31.48;;;;;;;;;;5138040;28;20226;-80
2023/11/13 07:41:22;;;;;;;36.55;32.88;;;;;;;;;;5137210;27;20258;-80
2023/11/13 07:43:50;;;;;;;34.90;31.55;;;;;;;;;;5136233;28;20197;-82
2023/11/13 07:46:18;;;;;;;32.25;29.00;;;;;;;;;;5135861;28;20217;-79
2023/11/13 07:48:46;;;;;;;35.17;31.85;;;;;;;;;;5137435;28;20248;-80
2023/11/13 07:51:13;;;;;;;34.13;30.97;;;;;;;;;;5136968;28;20882;-81
2023/11/13 07:53:40;;;;;;;35.78;31.90;;;;;;;;;;5136305;28;20838;-80
2023/11/13 07:56:09;;;;;;;35.35;31.75;;;;;;;;;;5137597;28;20205;-80
2023/11/13 07:58:36;;;;;;;34.83;31.42;;;;;;;;;;5137216;28;20631;-79
2023/11/13 08:01:04;;;;;;;36.73;33.00;;;;;;;;;;5138177;28;20225;-81
2023/11/13 08:03:31;;;;;;;37.60;34.00;;;;;;;;;;5136579;28;20447;-81
2023/11/13 08:05:59;;;;;;;37.53;33.83;;;;;;;;;;5135712;28;20225;-81
2023/11/13 08:08:26;;;;;;;37.42;33.58;;;;;;;;;;5136968;28;20474;-81
2023/11/13 08:10:53;;;;;;;37.35;33.53;;;;;;;;;;5136798;28;20638;-81
2023/11/13 08:13:21;;;;;;;39.70;35.47;;;;;;;;;;5137098;28;20637;-81
2023/11/13 08:15:50;;;;;;;38.63;34.63;;;;;;;;;;5138889;28;20433;-81
2023/11/13 08:18:18;;;;;;;42.40;38.23;;;;;;;;;;5139204;28;20222;-79
2023/11/13 08:20:46;;;;;;;41.53;37.03;;;;;;;;;;5137354;27;21229;-81
2023/11/13 08:23:15;;;;;;;38.05;34.30;;;;;;;;;;5123882;27;20206;-81
2023/11/13 08:25:43;;;;;;;45.83;37.78;;;;;;;;;;5118297;28;20201;-80
2023/11/13 08:28:10;;;;;;;44.33;37.40;;;;;;;;;;5118905;28;20632;-77
2023/11/13 08:30:37;;;;;;;43.95;39.40;;;;;;;;;;5131933;27;20198;-80
2023/11/13 08:33:04;;;;;;;47.00;38.70;;;;;;;;;;5117265;28;20217;-79
2023/11/13 08:35:31;;;;;;;47.10;39.60;;;;;;;;;;5119095;28;20505;-79
2023/11/13 08:37:59;;;;;;;48.45;39.25;;;;;;;;;;5119916;28;20261;-80
2023/11/13 08:40:29;;;;;;;50.37;39.10;;;;;;;;;;5119438;28;20237;-79
2023/11/13 08:42:56;;;;;;;48.70;37.30;;;;;;;;;;5119297;28;20542;-79
2023/11/13 08:45:24;;;;;;;47.10;37.33;;;;;;;;;;5119597;28;20233;-80
2023/11/13 08:47:51;;;;;;;38.57;34.47;;;;;;;;;;5119449;28;20253;-81
2023/11/13 08:50:19;;;;;;;46.80;36.97;;;;;;;;;;5119829;28;20455;-79
2023/11/13 08:52:47;;;;;;;45.27;37.00;;;;;;;;;;5119932;28;20213;-80
2023/11/13 08:55:17;;;;;;;38.30;34.53;;;;;;;;;;5119232;28;20447;-79
2023/11/13 08:57:45;;;;;;;41.47;35.60;;;;;;;;;;5120224;28;20470;-80
2023/11/13 09:00:18;;;;;;;36.67;32.97;;;;;;;;;;5119746;28;20854;-79
2023/11/13 09:02:46;;;;;;;47.43;37.97;;;;;;;;;;5118250;28;20425;-79
2023/11/13 09:05:13;;;;;;;41.90;36.13;;;;;;;;;;5116832;28;20480;-79
2023/11/13 09:07:41;;;;;;;44.42;35.28;;;;;;;;;;5117799;28;20249;-78
2023/11/13 09:10:10;;;;;;;42.00;36.05;;;;;;;;;;5119250;28;20202;-79
2023/11/13 09:12:37;;;;;;;39.33;35.20;;;;;;;;;;5120063;28;20202;-79
2023/11/13 09:15:11;;;;;;;36.13;32.72;;;;;;;;;;5118198;28;20314;-80
2023/11/13 09:17:41;;;;;;;38.97;34.77;;;;;;;;;;5118282;28;20218;-80
2023/11/13 09:20:09;;;;;;;41.13;35.33;;;;;;;;;;5118008;28;20511;-79
2023/11/13 09:22:36;;;;;;;39.10;35.20;;;;;;;;;;5117127;28;20470;-80
2023/11/13 09:25:04;;;;;;;40.77;36.17;;;;;;;;;;5117320;28;20447;-80
2023/11/13 09:27:32;;;;;;;39.20;35.23;;;;;;;;;;5118145;28;20496;-78
2023/11/13 09:29:59;;;;;;;37.70;34.17;;;;;;;;;;5120461;28;21294;-79
2023/11/13 09:32:28;;;;;;;38.00;34.30;;;;;;;;;;5119458;28;20452;-80
2023/11/13 09:34:57;;;;;;;38.28;34.33;;;;;;;;;;5117633;28;20946;-79
2023/11/13 09:37:24;;;;;;;37.57;33.53;;;;;;;;;;5117348;28;20256;-79
2023/11/13 09:39:51;;;;;;;40.70;34.80;;;;;;;;;;5117548;28;20440;-80
2023/11/13 09:42:19;;;;;;;40.33;36.30;;;;;;;;;;5117592;28;20221;-79
2023/11/13 09:44:48;;;;;;;36.90;33.50;;;;;;;;;;5116854;28;20459;-80
2023/11/13 09:47:17;;;;;;;37.20;33.57;;;;;;;;;;5117852;28;20499;-79
2023/11/13 09:49:48;;;;;;;37.57;34.27;;;;;;;;;;5117405;28;20444;-80
2023/11/13 09:52:18;;;;;;;36.90;33.30;;;;;;;;;;5118803;28;20435;-78
2023/11/13 09:54:46;;;;;;;38.65;35.10;;;;;;;;;;5119120;28;20433;-79
2023/11/13 09:57:14;;;;;;;37.50;34.03;;;;;;;;;;5119551;28;20222;-79
2023/11/13 09:59:42;;;;;;;36.03;33.00;;;;;;;;;;5119381;28;20205;-80
2023/11/13 10:02:11;;;;;;;35.43;31.93;;;;;;;;;;5119135;28;20448;-79
2023/11/13 10:04:38;;;;;;;34.28;31.45;;;;;;;;;;5117984;28;20436;-80
2023/11/13 10:07:07;;;;;;;35.65;32.60;;;;;;;;;;5118735;28;20229;-79
2023/11/13 10:09:35;;;;;;;37.92;34.47;;;;;;;;;;5118965;28;20557;-80
2023/11/13 10:12:03;;;;;;;35.87;32.40;;;;;;;;;;5118805;28;20210;-79
2023/11/13 10:14:30;;;;;;;34.07;31.67;;;;;;;;;;5117662;28;20492;-79
2023/11/13 10:17:00;;;;;;;37.58;34.35;;;;;;;;;;5118347;28;20439;-78
2023/11/13 10:19:28;;;;;;;35.58;32.92;;;;;;;;;;5118572;28;20210;-79
2023/11/13 10:21:57;;;;;;;37.40;33.93;;;;;;;;;;5115907;28;20812;-80
2023/11/13 10:24:26;;;;;;;34.50;31.60;;;;;;;;;;5126925;27;20447;-78
2023/11/13 10:26:53;;;;;;;38.13;35.23;;;;;;;;;;5127861;27;20491;-79
2023/11/13 10:29:22;;;;;;;35.90;32.70;;;;;;;;;;5117107;28;20464;-78
2023/11/13 10:31:52;;;;;;;39.00;35.33;;;;;;;;;;5112940;28;20448;-80
2023/11/13 10:34:20;;;;;;;37.90;34.80;;;;;;;;;;5118144;28;20955;-84
2023/11/13 10:37:06;;;;;;;34.93;32.03;;;;;;;;;;5118738;28;20497;-80
2023/11/13 10:39:36;;;;;;;36.67;33.77;;;;;;;;;;5117389;28;20439;-80
2023/11/13 10:42:03;;;;;;;34.93;32.03;;;;;;;;;;5117367;28;20467;-83
2023/11/13 10:44:37;;;;;;;34.87;32.00;;;;;;;;;;5118385;28;20460;-82
2023/11/13 10:47:20;;;;;;;35.63;32.73;;;;;;;;;;5119172;28;20445;-85
2023/11/13 10:49:48;;;;;;;35.83;33.13;;;;;;;;;;5118794;28;20463;-87
2023/11/13 10:52:16;;;;;;;35.47;32.90;;;;;;;;;;5118848;28;20458;-86
2023/11/13 10:54:48;;;;;;;36.10;33.60;;;;;;;;;;5117225;28;20471;-87
2023/11/13 10:57:16;;;;;;;37.60;34.73;;;;;;;;;;5117664;28;20221;-82
2023/11/13 10:59:46;;;;;;;37.93;35.00;;;;;;;;;;5118706;28;20451;-87
2023/11/13 11:02:22;;;;;;;41.80;37.30;;;;;;;;;;5118643;28;20426;-83
2023/11/13 11:04:52;;;;;;;36.53;33.93;;;;;;;;;;5115350;28;20940;-82
2023/11/13 11:07:20;;;;;;;37.30;34.70;;;;;;;;;;5118297;28;21078;-83
2023/11/13 11:09:49;;;;;;;39.37;36.17;;;;;;;;;;5119144;28;20406;-83
2023/11/13 11:12:16;;;;;;;37.60;35.13;;;;;;;;;;5118284;28;21146;-78
2023/11/13 11:14:50;;;;;;;40.67;37.67;;;;;;;;;;5129525;28;20421;-80
2023/11/13 11:17:21;;;;;;;37.60;35.20;;;;;;;;;;5139805;27;20482;-80
2023/11/13 11:19:49;;;;;;;35.90;33.23;;;;;;;;;;5139977;28;20439;-80
2023/11/13 11:22:22;;;;;;;37.17;34.70;;;;;;;;;;5138903;28;20551;-84
2023/11/13 11:24:57;;;;;;;38.20;35.10;;;;;;;;;;5135745;28;20451;-80
2023/11/13 11:27:40;;;;;;;37.20;34.60;;;;;;;;;;5135977;28;20505;-81
2023/11/13 11:30:26;;;;;;;39.00;36.10;;;;;;;;;;5136477;28;20902;-81
2023/11/13 11:32:53;;;;;;;36.77;34.47;;;;;;;;;;5136048;28;20429;-78
2023/11/13 11:35:21;;;;;;;39.97;37.10;;;;;;;;;;5134420;28;20501;-79
2023/11/13 11:38:15;;;;;;;38.77;36.13;;;;;;;;;;5137528;27;20486;-87
2023/11/13 11:40:44;;;;;;;42.60;38.53;;;;;;;;;;5138359;28;20795;-87
2023/11/13 11:43:15;;;;;;;39.47;36.87;;;;;;;;;;5139429;27;20465;-80
2023/11/13 11:45:45;;;;;;;37.50;35.00;;;;;;;;;;5139638;28;20442;-79
2023/11/13 11:48:15;;;;;;;40.00;37.20;;;;;;;;;;5140115;28;20512;-79
2023/11/13 11:50:43;;;;;;;39.13;36.23;;;;;;;;;;5121331;27;20497;-81
2023/11/13 11:53:16;;;;;;;39.50;36.60;;;;;;;;;;5119095;28;20452;-79
2023/11/13 11:55:45;;;;;;;38.73;36.13;;;;;;;;;;5120352;28;20437;-80
2023/11/13 11:58:13;;;;;;;38.47;35.67;;;;;;;;;;5124110;28;20455;-80
2023/11/13 12:00:40;;;;;;;42.00;38.97;;;;;;;;;;5123859;28;20472;-81
2023/11/13 12:03:08;;;;;;;38.60;36.10;;;;;;;;;;5123996;28;20436;-81
2023/11/13 12:05:35;;;;;;;36.03;33.47;;;;;;;;;;5123521;28;20539;-81
2023/11/13 12:08:02;;;;;;;36.27;33.87;;;;;;;;;;5123607;28;20495;-81
2023/11/13 12:10:32;;;;;;;38.27;35.70;;;;;;;;;;5137916;27;20462;-81
2023/11/13 12:13:01;;;;;;;34.80;32.60;;;;;;;;;;5145184;27;20432;-79
2023/11/13 12:15:28;;;;;;;36.40;33.77;;;;;;;;;;5137901;27;20467;-81
2023/11/13 12:17:56;;;;;;;35.00;32.80;;;;;;;;;;5128218;27;20472;-79
2023/11/13 12:20:26;;;;;;;34.00;32.00;;;;;;;;;;5137251;27;20472;-80
2023/11/13 12:22:54;;;;;;;38.00;35.53;;;;;;;;;;5135090;27;20451;-79
2023/11/13 12:25:21;;;;;;;36.37;34.17;;;;;;;;;;5122514;28;20452;-80
2023/11/13 12:27:48;;;;;;;34.97;33.17;;;;;;;;;;5122119;28;20498;-81
2023/11/13 12:30:19;;;;;;;38.87;36.47;;;;;;;;;;5125574;27;20463;-81
2023/11/13 12:32:46;;;;;;;40.10;37.60;;;;;;;;;;5142869;27;20488;-79
2023/11/13 12:35:17;;;;;;;36.83;34.43;;;;;;;;;;5129017;27;20452;-81
2023/11/13 12:37:45;;;;;;;35.07;32.87;;;;;;;;;;5124297;27;21163;-81
2023/11/13 12:40:14;;;;;;;34.63;32.65;;;;;;;;;;5137470;27;20475;-81
2023/11/13 12:42:42;;;;;;;33.93;32.10;;;;;;;;;;5141974;27;20221;-80
2023/11/13 12:45:13;;;;;;;35.43;33.53;;;;;;;;;;5141884;27;20552;-80
2023/11/13 12:47:45;;;;;;;35.83;33.83;;;;;;;;;;5140883;27;20995;-86
2023/11/13 12:50:16;;;;;;;36.67;34.73;;;;;;;;;;5140581;27;20397;-81
2023/11/13 12:52:46;;;;;;;40.17;37.97;;;;;;;;;;5136495;27;20470;-76
2023/11/13 12:55:13;;;;;;;39.80;37.57;;;;;;;;;;5121893;27;20862;-78
2023/11/13 12:57:42;;;;;;;40.07;37.77;;;;;;;;;;5119861;27;20470;-79
2023/11/13 13:00:14;;;;;;;38.97;36.90;;;;;;;;;;5118488;27;20450;-79
2023/11/13 13:02:43;;;;;;;38.87;36.87;;;;;;;;;;5122568;27;20549;-81
2023/11/13 13:05:12;;;;;;;36.60;34.80;;;;;;;;;;5138054;27;20432;-81
2023/11/13 13:07:39;;;;;;;39.43;37.43;;;;;;;;;;5138929;27;20493;-84
2023/11/13 13:10:11;;;;;;;37.93;36.03;;;;;;;;;;5143448;27;20447;-81
2023/11/13 13:12:39;;;;;;;39.43;37.23;;;;;;;;;;5122339;27;20468;-79
2023/11/13 13:15:08;;;;;;;37.73;35.90;;;;;;;;;;5132856;27;20470;-83
2023/11/13 13:17:38;;;;;;;36.00;34.10;;;;;;;;;;5140685;27;20445;-81
2023/11/13 13:20:06;;;;;;;36.63;34.83;;;;;;;;;;5126891;27;20554;-80
2023/11/13 13:22:36;;;;;;;36.93;35.00;;;;;;;;;;5123610;27;20519;-78
2023/11/13 13:25:03;;;;;;;38.23;36.30;;;;;;;;;;5134939;27;20430;-80
2023/11/13 13:27:31;;;;;;;38.00;35.80;;;;;;;;;;5140508;27;20495;-80
2023/11/13 13:29:58;;;;;;;37.03;34.90;;;;;;;;;;5138686;27;20466;-79
2023/11/13 13:32:29;;;;;;;39.57;37.47;;;;;;;;;;5119131;27;20455;-80
2023/11/13 13:34:56;;;;;;;39.70;37.50;;;;;;;;;;5128157;27;20447;-80
2023/11/13 13:37:24;;;;;;;38.80;36.80;;;;;;;;;;5139868;27;20528;-81
2023/11/13 13:39:55;;;;;;;39.67;37.50;;;;;;;;;;5136390;27;20448;-80
2023/11/13 13:42:22;;;;;;;38.63;36.43;;;;;;;;;;5118779;28;21312;-83
2023/11/13 13:44:49;;;;;;;39.00;37.00;;;;;;;;;;5124692;27;20796;-83
2023/11/13 13:47:17;;;;;;;41.80;39.60;;;;;;;;;;5126624;27;20471;-82
2023/11/13 13:49:44;;;;;;;41.40;39.20;;;;;;;;;;5119023;28;20448;-81
2023/11/13 13:52:14;;;;;;;42.17;39.77;;;;;;;;;;5121935;28;20431;-86
2023/11/13 13:54:42;;;;;;;42.57;40.17;;;;;;;;;;5126807;28;20475;-86
2023/11/13 13:57:10;;;;;;;40.97;38.83;;;;;;;;;;5127147;27;20480;-85
2023/11/13 13:59:43;;;;;;;41.43;38.80;;;;;;;;;;5126345;27;20486;-86
2023/11/13 14:02:10;;;;;;;38.17;36.10;;;;;;;;;;5127314;27;20520;-85
2023/11/13 14:04:38;;;;;;;42.10;39.80;;;;;;;;;;5129884;27;21021;-86
2023/11/13 14:07:06;;;;;;;41.47;39.17;;;;;;;;;;5134803;27;20456;-85
2023/11/13 14:09:33;;;;;;;41.40;39.20;;;;;;;;;;5137739;27;20449;-86
2023/11/13 14:12:03;;;;;;;40.77;38.37;;;;;;;;;;5143602;27;20462;-82
2023/11/13 14:14:31;;;;;;;40.67;38.33;;;;;;;;;;5140635;27;20455;-83
2023/11/13 14:16:58;;;;;;;41.57;38.83;;;;;;;;;;5123282;28;20842;-86
2023/11/13 14:19:26;;;;;;;39.67;37.67;;;;;;;;;;5122765;27;20447;-87
2023/11/13 14:21:53;;;;;;;41.40;38.70;;;;;;;;;;5129411;27;20433;-86
2023/11/13 14:24:21;;;;;;;42.57;40.17;;;;;;;;;;5143348;27;20427;-85
2023/11/13 14:26:48;;;;;;;48.50;45.63;;;;;;;;;;5145233;27;20455;-85
2023/11/13 14:29:16;;;;;;;45.60;43.10;;;;;;;;;;5144545;27;20474;-86